Aeroporto :
LOGIN :

Iscrizione | Disclaimer

   EN    FR    IT 

 










Sommario :    VFR   VFR Marginale   IFR   IFR Intensivo   IFR Molto Intensivo
Visibilità : 
Base nubi : 
>= 8 km
>= 3000ft
5 / 8 km
1000 / 3000 ft
1500m / 5 km
500 / 1000 ft
800 / 1500m
200 / 500 ft
< 800m
< 200 ft
Simboli :   Temporali  Nebbia  Neve Forte  Precipitazioni Forti  Vento > 20 kt
SIGMETs :   Varie  Temporali  Ghiacco  Turbolenza  Onda orograficha  Ceneri Vulcaniche






- Altitudine del aeroporto : 90 ft
- Codice IATA : NTE


LFRS - Nantes

ULTIMO METAR :
  • 150900Z AUTO 25011KT 220V280 9999 OVC020 21/17 Q1007 NOSIG

METARs OBSOLETI :
  • 150830Z AUTO 25010KT 220V280 9999 OVC018 20/17 Q1007 NOSIG
  • 150800Z AUTO 26011KT 9999 OVC017 20/17 Q1007 NOSIG
  • 150730Z AUTO 25009KT 220V290 9999 OVC018 20/17 Q1006 NOSIG
  • 150700Z AUTO 25011KT 9999 OVC018 20/17 Q1006 TEMPO OVC012
  • 150630Z AUTO 25008KT 220V280 9999 OVC018 19/17 Q1006 TEMPO OVC012

TAF TAF LFRS
Valido dal 15 a 06 ore il 16 a 12 ore UTC


150500Z 1506/1612 26010KT 9999 OVC016
TEMPO 1506/1508 OVC012
BECMG 1508/1510 CAVOK
TEMPO 1522/1603 BKN013
BECMG 1601/1603 18006KT
TEMPO 1606/1612 4500 SHRA SCT020CB BKN025
TEMPO 1609/1612 2000 TSRA BKN018CB
ATIS : +33 2 40 05 12 74



MetMap, La meteo Aeronautica in un colpo d'occhio ! - Copyright ORBIFLY Dicembre 2007 - Disclaimer

ORBIFLY MET'MAP TEAM :

Programmazione e sviluppo : Alexandra Zaïnal
Concezione : Baudouin d'Aumeries
Supporto tecnico e logistico : Manuel Goepfert
Aiuto : Marc-Olivier Méhu
Aiuto per la traduzione : Arnaldo La Scala




FONTI E CREDITI :

   NOAA